Aérodrome :
LOGIN :

S'inscrire | Disclaimer

   EN    FR    IT 

 










Légende :    VFR   VFR Marginal   IFR   IFR Intensif   IFR Très Intensif
Visi : 
Plafond : 
>= 8 km
>= 3000ft
5 à 8 km
1000 à 3000 ft
1500m à 5 km
500 à 1000 ft
800 à 1500m
200 à 500 ft
< 800m
< 200 ft
Symboles :   Orages  Brouillard  Fortes neiges  Fortes précipitations  Vent > 20 kt
SIGMETs :   Divers  Orages  Givrage  Turbulence  Onde Orograph.  Cendres Volcan.







- Altitude de l'aérodrome : 102 ft
- Code IATA : EXT
- Voir les cartes d'approche


EGTE - Exeter

DERNIER METAR :
  • 181050Z VRB03KT 7000 BKN007 12/11 Q1010

METARs EXPIRÉS :
  • 181020Z VRB02KT 8000 OVC008 11/11 Q1010
  • 180950Z 04005KT 010V070 6000 OVC008 11/10 Q1010
  • 180920Z 04006KT 5000 BR OVC009 11/10 Q1010
  • 180850Z 04006KT 7000 -RA OVC010 11/09 Q1011
  • 180820Z 05006KT 9999 BKN010 11/09 Q1011

TAF TAF EGTE
Valide du 18 à 09h jusqu'au 18 à 18h UTC


180801Z 1809/1818 04005KT 9999 BKN010
BECMG 1809/1812 8000 BKN007
TEMPO 1809/1812 3000 -DZ BR BKN004
BECMG 1812/1815 9999 SCT014
Pas de NOTAMs connus pour ce terrain.
1 SIGMET publié pour la FIR London (EGTT) :
 
Turbulence forte
EGTT SIGMET 01 VALID 181000/181400 EGRR
EGTT LONDON FIR SEV TURB FCST WI N5000 W00800 - N5000 W00730 - N4900 W00707 - N4850 W00800 - N5000 W00800 FL220/350 MOV E 10KT NC=



MET'MAP, la Météo Aéronautique d'un coup d'oeil ! - Copyright ORBIFLY Décembre 2007 - Disclaimer

ORBIFLY MET'MAP TEAM :

Programmation & Développement : Alexandra Zaïnal
Conception & Développement : Baudouin d'Aumeries
Co-Programmation & Développement : Marc-Olivier Méhu
Soutien technique & logistique : Manuel Goepfert

Contact : metmap@orbifly.com




SOURCES & CREDITS :

   NOAA